Time;durP1;ratioP1;P1;durP2;ratioP2;P2;SDS_P1;SDS_P2;PMS_P1;PMS_P2;Temp;Humidity;BMP_temperature;BMP_pressure;BME280_temperature;BME280_humidity;BME280_pressure;Samples;Min_cycle;Max_cycle;Signal;HPM_P1;HPM_P2
2021/03/11 00:00:36;;;;;;;16.10;10.27;;;7.80;1.00;;;;;;4903491;29;20636;-74
2021/03/11 00:03:03;;;;;;;18.13;10.57;;;7.90;1.00;;;;;;4907653;29;20048;-74
2021/03/11 00:05:30;;;;;;;16.83;10.93;;;7.90;1.00;;;;;;4902548;29;20214;-77
2021/03/11 00:07:59;;;;;;;19.67;11.70;;;7.90;1.00;;;;;;4904383;29;20063;-73
2021/03/11 00:10:26;;;;;;;19.45;10.00;;;7.90;1.00;;;;;;4898236;29;20056;-74
2021/03/11 00:12:53;;;;;;;16.63;10.57;;;7.90;1.00;;;;;;4898910;29;20051;-74
2021/03/11 00:15:22;;;;;;;18.35;11.10;;;7.90;1.00;;;;;;4896648;29;20048;-80
2021/03/11 00:17:49;;;;;;;16.02;10.32;;;8.00;1.00;;;;;;4903044;29;20407;-75
2021/03/11 00:20:18;;;;;;;16.42;10.43;;;8.00;1.00;;;;;;4896548;29;20083;-74
2021/03/11 00:22:47;;;;;;;27.17;10.85;;;8.00;1.00;;;;;;4900418;29;20052;-74
2021/03/11 00:25:15;;;;;;;17.20;10.43;;;8.00;1.00;;;;;;4899773;29;20084;-78
2021/03/11 00:27:43;;;;;;;16.83;10.75;;;8.00;1.00;;;;;;4894701;29;20059;-75
2021/03/11 00:30:12;;;;;;;15.68;10.02;;;8.10;1.00;;;;;;4897391;29;20060;-74
2021/03/11 00:32:39;;;;;;;15.15;9.88;;;8.00;1.00;;;;;;4897221;29;20053;-74
2021/03/11 00:35:08;;;;;;;16.38;10.20;;;8.10;1.00;;;;;;4905563;29;20138;-74
2021/03/11 00:37:35;;;;;;;17.63;10.60;;;8.10;1.00;;;;;;4899904;29;20052;-73
2021/03/11 00:40:03;;;;;;;17.73;10.27;;;8.10;1.00;;;;;;4905591;29;20056;-74
2021/03/11 00:42:30;;;;;;;15.88;9.93;;;8.10;1.00;;;;;;4903907;29;20056;-73
2021/03/11 00:44:57;;;;;;;16.70;10.10;;;8.10;1.00;;;;;;4899619;29;20510;-75
2021/03/11 00:47:24;;;;;;;18.17;11.00;;;8.10;1.00;;;;;;4897183;29;20064;-73
2021/03/11 00:49:51;;;;;;;17.55;9.88;;;8.10;1.00;;;;;;4898579;29;20503;-74
2021/03/11 00:52:18;;;;;;;15.52;9.50;;;8.10;1.00;;;;;;4897965;29;20067;-74
2021/03/11 00:54:45;;;;;;;18.35;10.05;;;8.10;1.00;;;;;;4901151;29;20062;-75
2021/03/11 00:57:12;;;;;;;16.15;10.23;;;8.10;1.00;;;;;;4898529;29;20052;-74
2021/03/11 00:59:39;;;;;;;17.25;9.98;;;8.10;1.00;;;;;;4901884;29;20059;-75
2021/03/11 01:02:06;;;;;;;16.50;9.57;;;8.00;1.00;;;;;;4904893;29;20047;-75
2021/03/11 01:04:33;;;;;;;16.08;9.43;;;8.00;1.00;;;;;;4902637;29;20052;-74
2021/03/11 01:07:00;;;;;;;15.80;9.43;;;8.10;1.00;;;;;;4895426;29;20068;-79
2021/03/11 01:09:27;;;;;;;13.98;8.60;;;8.10;1.00;;;;;;4899001;29;20059;-74
2021/03/11 01:11:54;;;;;;;15.95;10.05;;;8.10;1.00;;;;;;4899951;29;20050;-75
2021/03/11 01:14:21;;;;;;;14.88;10.00;;;8.10;1.00;;;;;;4905715;29;20439;-74
2021/03/11 01:16:48;;;;;;;13.23;8.90;;;8.10;1.00;;;;;;4899145;29;20049;-78
2021/03/11 01:19:16;;;;;;;13.77;7.90;;;8.10;1.00;;;;;;4897275;29;20055;-74
2021/03/11 01:21:43;;;;;;;11.88;7.35;;;8.30;1.00;;;;;;4903021;29;20072;-75
2021/03/11 01:24:17;;;;;;;12.38;7.32;;;8.40;1.00;;;;;;4903039;29;20439;-75
2021/03/11 01:26:44;;;;;;;12.77;7.47;;;8.50;1.00;;;;;;4899002;29;20059;-74
2021/03/11 01:29:11;;;;;;;13.13;8.45;;;8.40;1.00;;;;;;4895854;29;20053;-73
2021/03/11 01:31:38;;;;;;;13.15;8.40;;;8.40;1.00;;;;;;4887068;29;20056;-76
2021/03/11 01:34:05;;;;;;;14.25;8.88;;;8.30;1.00;;;;;;4886285;29;20546;-75
2021/03/11 01:36:33;;;;;;;15.05;9.23;;;8.30;1.00;;;;;;4884755;29;20052;-75
2021/03/11 01:38:59;;;;;;;15.45;9.07;;;8.30;1.00;;;;;;4881256;29;20428;-75
2021/03/11 01:41:26;;;;;;;14.38;8.23;;;8.20;1.00;;;;;;4888138;29;20061;-76
2021/03/11 01:43:54;;;;;;;13.45;7.85;;;8.30;1.00;;;;;;4901239;29;20051;-76
2021/03/11 01:46:23;;;;;;;12.38;7.10;;;8.30;1.00;;;;;;4905193;29;20056;-76
2021/03/11 01:48:50;;;;;;;11.73;6.65;;;8.30;1.00;;;;;;4905511;29;20060;-76
2021/03/11 01:51:19;;;;;;;12.32;6.82;;;8.30;1.00;;;;;;4909216;29;20052;-76
2021/03/11 01:53:47;;;;;;;14.30;7.32;;;8.30;1.00;;;;;;4907635;29;20040;-75
2021/03/11 01:56:14;;;;;;;12.27;7.40;;;8.30;1.00;;;;;;4908531;29;20055;-75
2021/03/11 01:58:41;;;;;;;13.52;7.95;;;8.20;1.00;;;;;;4907078;29;20068;-75
2021/03/11 02:01:08;;;;;;;14.05;8.45;;;8.20;1.00;;;;;;4907480;29;20127;-73
2021/03/11 02:03:36;;;;;;;14.32;7.68;;;8.20;1.00;;;;;;4903174;29;20047;-76
2021/03/11 02:06:03;;;;;;;12.45;7.80;;;8.20;1.00;;;;;;4903551;29;20420;-74
2021/03/11 02:08:30;;;;;;;16.60;8.07;;;8.20;1.00;;;;;;4902594;29;20057;-75
2021/03/11 02:10:59;;;;;;;14.45;8.43;;;8.10;1.00;;;;;;4904869;29;20052;-74
2021/03/11 02:13:34;;;;;;;11.40;7.00;;;8.10;1.00;;;;;;4906488;29;20055;-75
2021/03/11 02:16:09;;;;;;;8.68;6.20;;;8.10;1.00;;;;;;4908709;29;20488;-75
2021/03/11 02:18:43;;;;;;;8.77;5.57;;;8.20;1.00;;;;;;4908545;29;20060;-75
2021/03/11 02:21:13;;;;;;;8.88;5.80;;;8.10;1.00;;;;;;4910969;29;20056;-76
2021/03/11 02:24:28;;;;;;;11.18;5.18;;;8.10;1.00;;;;;;4912631;29;20048;-75
2021/03/11 02:27:09;;;;;;;6.93;4.27;;;8.10;1.00;;;;;;4902180;29;20049;-75
2021/03/11 02:29:38;;;;;;;7.57;4.65;;;8.00;1.00;;;;;;4901893;29;20291;-75
2021/03/11 02:32:09;;;;;;;11.13;4.35;;;8.00;1.00;;;;;;4904413;29;20052;-75
2021/03/11 02:34:41;;;;;;;9.35;4.22;;;8.00;1.00;;;;;;4908871;29;20052;-76
2021/03/11 02:37:12;;;;;;;7.40;4.93;;;7.90;1.00;;;;;;4905308;29;20052;-75
2021/03/11 02:39:41;;;;;;;6.95;4.53;;;7.90;1.00;;;;;;4905472;29;20047;-76
2021/03/11 02:42:09;;;;;;;8.82;4.50;;;7.90;1.00;;;;;;4906207;29;20048;-76
2021/03/11 02:44:37;;;;;;;8.05;5.28;;;7.90;1.00;;;;;;4912146;29;20083;-76
2021/03/11 02:47:05;;;;;;;9.90;5.45;;;7.90;1.00;;;;;;4910000;29;20449;-75
2021/03/11 02:49:33;;;;;;;11.23;6.10;;;7.90;1.00;;;;;;4908751;29;20155;-75
2021/03/11 02:52:01;;;;;;;8.52;5.22;;;8.00;1.00;;;;;;4912944;29;20108;-76
2021/03/11 02:54:30;;;;;;;9.43;5.93;;;8.00;1.00;;;;;;4909739;29;20052;-76
2021/03/11 02:57:01;;;;;;;11.95;5.88;;;7.90;1.00;;;;;;4905642;29;20056;-75
2021/03/11 02:59:30;;;;;;;13.90;6.15;;;7.90;1.00;;;;;;4892255;29;20157;-76
2021/03/11 03:01:59;;;;;;;10.73;5.72;;;7.90;1.00;;;;;;4912528;29;20059;-75
2021/03/11 03:04:29;;;;;;;10.38;6.03;;;7.90;1.00;;;;;;4910969;29;20495;-74
2021/03/11 03:06:57;;;;;;;10.75;6.32;;;7.90;1.00;;;;;;4917487;29;20063;-74
2021/03/11 03:09:24;;;;;;;9.57;5.53;;;7.90;1.00;;;;;;4899281;29;20079;-75
2021/03/11 03:11:53;;;;;;;9.02;5.72;;;7.90;1.00;;;;;;4909466;29;20426;-74
2021/03/11 03:14:21;;;;;;;9.32;5.72;;;8.00;1.00;;;;;;4906701;29;20053;-75
2021/03/11 03:16:48;;;;;;;11.20;6.05;;;8.00;1.00;;;;;;4898908;29;20516;-74
2021/03/11 03:19:17;;;;;;;11.60;6.18;;;8.00;1.00;;;;;;4903942;29;20131;-75
2021/03/11 03:21:45;;;;;;;9.38;5.88;;;8.00;1.00;;;;;;4900996;29;20060;-74
2021/03/11 03:24:14;;;;;;;8.48;5.80;;;8.00;1.00;;;;;;4906531;29;20053;-75
2021/03/11 03:26:41;;;;;;;11.55;6.32;;;8.00;1.00;;;;;;4912816;29;20052;-76
2021/03/11 03:29:08;;;;;;;10.55;6.50;;;8.00;1.00;;;;;;4904848;29;20060;-75
2021/03/11 03:31:35;;;;;;;8.55;5.35;;;8.00;1.00;;;;;;4899276;29;20084;-78
2021/03/11 03:34:03;;;;;;;13.50;6.82;;;7.90;1.00;;;;;;4898778;29;20044;-76
2021/03/11 03:36:31;;;;;;;10.70;5.88;;;7.90;1.00;;;;;;4913057;29;20052;-73
2021/03/11 03:38:58;;;;;;;11.63;6.53;;;7.80;1.00;;;;;;4896141;29;20052;-75
2021/03/11 03:41:26;;;;;;;11.48;6.20;;;7.80;1.00;;;;;;4907119;29;20136;-76
2021/03/11 03:43:54;;;;;;;8.82;6.07;;;7.80;1.00;;;;;;4904808;29;20051;-76
2021/03/11 03:46:24;;;;;;;9.77;5.53;;;7.70;1.00;;;;;;4906545;29;20060;-75
2021/03/11 03:48:53;;;;;;;9.95;6.07;;;7.70;1.00;;;;;;4905323;29;20044;-74
2021/03/11 03:51:25;;;;;;;12.07;6.45;;;7.70;1.00;;;;;;4906554;29;20127;-75
2021/03/11 03:53:55;;;;;;;11.07;6.00;;;7.70;1.00;;;;;;4906960;29;20055;-75
2021/03/11 03:56:24;;;;;;;8.70;6.00;;;7.70;1.00;;;;;;4909938;29;20527;-75
2021/03/11 03:58:57;;;;;;;11.85;6.55;;;7.70;1.00;;;;;;4908492;29;20079;-74
2021/03/11 04:01:26;;;;;;;11.10;6.75;;;7.70;1.00;;;;;;4915572;29;20059;-75
2021/03/11 04:03:53;;;;;;;12.27;7.03;;;7.70;1.00;;;;;;4903172;29;20053;-76
2021/03/11 04:06:20;;;;;;;11.63;6.72;;;7.70;1.00;;;;;;4912412;29;20423;-74
2021/03/11 04:08:48;;;;;;;12.70;7.40;;;7.80;1.00;;;;;;4906823;29;20056;-73
2021/03/11 04:11:18;;;;;;;15.15;6.72;;;7.80;1.00;;;;;;4916427;29;20063;-73
2021/03/11 04:13:46;;;;;;;11.65;6.72;;;7.80;1.00;;;;;;4916220;29;20054;-74
2021/03/11 04:16:14;;;;;;;11.27;7.43;;;7.80;1.00;;;;;;4901100;29;20510;-74
2021/03/11 04:18:42;;;;;;;11.95;6.65;;;7.80;1.00;;;;;;4900971;29;20062;-74
2021/03/11 04:21:10;;;;;;;11.73;7.10;;;7.80;1.00;;;;;;4905970;29;20044;-76
2021/03/11 04:23:40;;;;;;;10.77;7.13;;;7.80;1.00;;;;;;4914078;29;20049;-74
2021/03/11 04:26:08;;;;;;;12.13;7.18;;;7.80;1.00;;;;;;4906823;29;20496;-75
2021/03/11 04:28:36;;;;;;;10.68;6.75;;;7.80;1.00;;;;;;4904694;29;20056;-76
2021/03/11 04:31:04;;;;;;;13.75;7.70;;;7.80;1.00;;;;;;4902383;29;20068;-75
2021/03/11 04:33:31;;;;;;;14.90;7.15;;;7.90;1.00;;;;;;4905988;29;20056;-74
2021/03/11 04:35:59;;;;;;;12.15;6.55;;;7.80;1.00;;;;;;4909638;29;20052;-77
2021/03/11 04:38:27;;;;;;;14.00;7.55;;;7.80;1.00;;;;;;4911171;29;20056;-76
2021/03/11 04:40:54;;;;;;;13.95;7.13;;;7.90;1.00;;;;;;4905261;29;20048;-76
2021/03/11 04:43:21;;;;;;;14.20;6.88;;;7.90;1.00;;;;;;4905542;29;20055;-74
2021/03/11 04:45:49;;;;;;;13.68;7.20;;;7.90;1.00;;;;;;4905068;29;20048;-76
2021/03/11 04:48:17;;;;;;;11.60;6.60;;;7.90;1.00;;;;;;4904387;29;20049;-76
2021/03/11 04:50:45;;;;;;;9.52;6.38;;;7.90;1.00;;;;;;4906930;29;20435;-75
2021/03/11 04:53:12;;;;;;;8.75;6.32;;;7.90;1.00;;;;;;4906416;29;20068;-76
2021/03/11 04:55:43;;;;;;;9.10;4.65;;;8.00;1.00;;;;;;4904220;29;20052;-74
2021/03/11 04:58:10;;;;;;;5.25;3.78;;;8.20;1.00;;;;;;4906484;29;20060;-75
2021/03/11 05:00:38;;;;;;;8.70;4.50;;;8.60;1.00;;;;;;4902155;29;20059;-75
2021/03/11 05:03:09;;;;;;;8.23;3.63;;;8.70;1.00;;;;;;4902755;29;20477;-76
2021/03/11 05:05:38;;;;;;;9.70;4.00;;;8.80;1.00;;;;;;4903839;29;20048;-76
2021/03/11 05:08:06;;;;;;;6.78;3.55;;;9.00;1.00;;;;;;4888038;29;20057;-77
2021/03/11 05:10:34;;;;;;;6.63;3.95;;;9.10;1.00;;;;;;4914425;29;20052;-73
2021/03/11 05:13:01;;;;;;;6.40;3.45;;;9.10;1.00;;;;;;4907911;29;20052;-74
2021/03/11 05:15:29;;;;;;;5.38;3.47;;;9.30;1.00;;;;;;4897552;29;20060;-73
2021/03/11 05:17:56;;;;;;;7.97;3.72;;;9.30;1.00;;;;;;4909494;29;20048;-73
2021/03/11 05:20:25;;;;;;;5.60;3.70;;;9.40;1.00;;;;;;4897291;29;20091;-75
2021/03/11 05:22:51;;;;;;;7.53;3.90;;;9.30;1.00;;;;;;4897032;29;20103;-74
2021/03/11 05:25:19;;;;;;;6.72;3.65;;;9.30;1.00;;;;;;4908042;29;20079;-76
2021/03/11 05:27:46;;;;;;;9.15;3.70;;;9.40;1.00;;;;;;4905543;29;20059;-74
2021/03/11 05:30:14;;;;;;;8.52;3.72;;;9.40;1.00;;;;;;4913672;29;20072;-73
2021/03/11 05:32:42;;;;;;;9.25;3.83;;;9.40;1.00;;;;;;4878559;29;20534;-73
2021/03/11 05:35:10;;;;;;;8.10;3.58;;;9.40;1.00;;;;;;4878441;29;20496;-75
2021/03/11 05:37:38;;;;;;;4.97;3.13;;;9.30;1.00;;;;;;4893211;29;20507;-74
2021/03/11 05:40:10;;;;;;;5.07;3.47;;;9.40;1.00;;;;;;4907916;29;20052;-75
2021/03/11 05:42:38;;;;;;;6.22;3.05;;;9.40;1.00;;;;;;4896892;29;20412;-75
2021/03/11 05:45:07;;;;;;;7.00;3.53;;;9.30;1.00;;;;;;4898376;29;20044;-73
2021/03/11 05:47:35;;;;;;;10.57;4.20;;;9.40;1.00;;;;;;4896724;29;20053;-73
2021/03/11 05:50:03;;;;;;;9.25;3.90;;;9.30;1.00;;;;;;4903245;29;20092;-73
2021/03/11 05:52:30;;;;;;;7.88;3.83;;;9.30;1.00;;;;;;4896867;29;20052;-75
2021/03/11 05:54:59;;;;;;;7.53;3.60;;;9.30;1.00;;;;;;4896596;29;20492;-75
2021/03/11 05:57:39;;;;;;;4.03;3.28;;;9.30;1.00;;;;;;4912063;29;20155;-74
2021/03/11 06:00:07;;;;;;;6.28;3.10;;;9.30;1.00;;;;;;4915726;29;20063;-75
2021/03/11 06:02:34;;;;;;;5.60;3.05;;;9.30;1.00;;;;;;4915768;29;20052;-75
2021/03/11 06:05:01;;;;;;;5.90;2.97;;;9.40;1.00;;;;;;4902897;29;20384;-75
2021/03/11 06:07:32;;;;;;;5.93;3.45;;;9.40;1.00;;;;;;4896481;29;20499;-75
2021/03/11 06:10:03;;;;;;;4.25;2.90;;;9.40;1.00;;;;;;4909466;29;20056;-78
2021/03/11 06:12:31;;;;;;;6.55;2.90;;;9.40;1.00;;;;;;4912840;29;20517;-74
2021/03/11 06:15:07;;;;;;;4.85;3.00;;;9.40;1.00;;;;;;4900647;29;20052;-77
2021/03/11 06:17:34;;;;;;;6.83;3.10;;;9.40;1.00;;;;;;4905866;29;20059;-74
2021/03/11 06:20:01;;;;;;;6.22;3.03;;;9.40;1.00;;;;;;4915372;29;20056;-74
2021/03/11 06:22:28;;;;;;;3.75;2.65;;;9.40;1.00;;;;;;4910434;29;20052;-77
2021/03/11 06:24:56;;;;;;;7.93;3.00;;;9.40;1.00;;;;;;4908796;29;20410;-73
2021/03/11 06:27:24;;;;;;;7.05;3.10;;;9.50;1.00;;;;;;4900657;29;20128;-74
2021/03/11 06:29:50;;;;;;;5.60;2.63;;;9.50;1.00;;;;;;4896461;29;20059;-74
2021/03/11 06:32:18;;;;;;;5.28;3.10;;;9.50;1.00;;;;;;4901197;29;20058;-74
2021/03/11 06:34:45;;;;;;;5.00;2.97;;;9.60;1.00;;;;;;4896309;29;20049;-74
2021/03/11 06:37:13;;;;;;;4.57;2.72;;;9.60;1.00;;;;;;4918505;29;20060;-74
2021/03/11 06:39:42;;;;;;;6.13;2.70;;;9.60;1.00;;;;;;4900829;29;20155;-76
2021/03/11 06:42:10;;;;;;;4.95;3.08;;;9.70;1.00;;;;;;4913287;29;20055;-74
2021/03/11 06:44:39;;;;;;;6.68;2.97;;;9.70;1.00;;;;;;4899223;29;20495;-77
2021/03/11 06:47:08;;;;;;;4.43;2.90;;;9.70;1.00;;;;;;4901675;29;20506;-74
2021/03/11 06:49:36;;;;;;;4.68;2.72;;;9.80;1.00;;;;;;4913503;29;20056;-74
2021/03/11 06:52:13;;;;;;;4.38;2.40;;;9.80;1.00;;;;;;4911244;29;20139;-74
2021/03/11 06:54:57;;;;;;;6.68;2.70;;;9.90;1.00;;;;;;4918600;29;20044;-73
2021/03/11 06:57:26;;;;;;;8.77;2.75;;;9.90;1.00;;;;;;4892647;29;20547;-74
2021/03/11 06:59:54;;;;;;;17.15;2.88;;;10.10;1.00;;;;;;4903487;29;20052;-76
2021/03/11 07:02:21;;;;;;;7.50;2.97;;;10.10;1.00;;;;;;4918281;29;20143;-74
2021/03/11 07:04:49;;;;;;;13.63;3.10;;;10.20;1.00;;;;;;4918030;29;20100;-73
2021/03/11 07:07:18;;;;;;;8.77;2.65;;;10.20;1.00;;;;;;4902643;29;20062;-74
2021/03/11 07:09:46;;;;;;;9.70;2.65;;;10.30;1.00;;;;;;4898888;29;20435;-74
2021/03/11 07:12:13;;;;;;;4.55;2.67;;;10.30;1.00;;;;;;4912355;29;20139;-74
2021/03/11 07:14:40;;;;;;;4.75;1.92;;;10.30;1.00;;;;;;4905405;29;20053;-74
2021/03/11 07:17:21;;;;;;;10.52;2.65;;;10.40;1.00;;;;;;4899179;29;20053;-74
2021/03/11 07:20:12;;;;;;;9.80;2.63;;;10.40;1.00;;;;;;4899197;29;20072;-74
2021/03/11 07:22:39;;;;;;;5.07;3.03;;;10.40;1.00;;;;;;4911251;29;20131;-74
2021/03/11 07:25:25;;;;;;;7.28;2.50;;;10.50;1.00;;;;;;4915826;29;20052;-75
2021/03/11 07:27:52;;;;;;;5.88;2.13;;;10.50;1.00;;;;;;4902438;29;20044;-75
2021/03/11 07:30:20;;;;;;;5.25;2.30;;;10.60;1.00;;;;;;4906965;29;20048;-74
2021/03/11 07:32:47;;;;;;;3.40;1.80;;;10.60;1.00;;;;;;4909519;29;20056;-75
2021/03/11 07:35:17;;;;;;;7.45;2.65;;;10.70;1.00;;;;;;4893043;29;20052;-75
2021/03/11 07:37:49;;;;;;;4.22;1.95;;;10.70;1.00;;;;;;4898781;29;20045;-75
2021/03/11 07:40:17;;;;;;;3.90;1.98;;;10.80;1.00;;;;;;4900689;29;20059;-76
2021/03/11 07:42:45;;;;;;;5.32;1.60;;;10.80;1.00;;;;;;4909659;29;20068;-77
2021/03/11 07:45:13;;;;;;;6.93;1.92;;;10.90;1.00;;;;;;4912406;29;20040;-75
2021/03/11 07:47:41;;;;;;;5.22;2.00;;;10.90;1.00;;;;;;4905361;29;20056;-75
2021/03/11 07:50:12;;;;;;;5.15;1.85;;;11.00;1.00;;;;;;4906493;29;20060;-76
2021/03/11 07:52:39;;;;;;;5.25;2.30;;;11.10;1.00;;;;;;4906357;29;20054;-74
2021/03/11 07:55:10;;;;;;;3.88;1.60;;;11.10;1.00;;;;;;4907047;29;20044;-75
2021/03/11 07:57:40;;;;;;;3.42;1.80;;;11.20;1.00;;;;;;4904533;29;20827;-76
2021/03/11 08:00:09;;;;;;;2.95;1.58;;;11.20;1.00;;;;;;4906212;29;20530;-76
2021/03/11 08:02:38;;;;;;;4.00;2.05;;;11.30;1.00;;;;;;4901688;29;20067;-75
2021/03/11 08:05:25;;;;;;;4.00;1.60;;;11.30;1.00;;;;;;4905789;29;20052;-76
2021/03/11 08:08:17;;;;;;;6.22;2.13;;;11.40;1.00;;;;;;4906690;29;20052;-76
2021/03/11 08:10:48;;;;;;;3.40;1.70;;;11.50;1.00;;;;;;4906523;29;20056;-76
2021/03/11 08:13:35;;;;;;;3.80;1.70;;;11.60;1.00;;;;;;4904592;29;20285;-75
2021/03/11 08:16:22;;;;;;;6.28;1.80;;;11.70;1.00;;;;;;4905051;29;20044;-77
2021/03/11 08:18:52;;;;;;;6.57;1.80;;;11.90;1.00;;;;;;4906120;29;20049;-76
2021/03/11 08:21:47;;;;;;;12.95;2.08;;;11.90;1.00;;;;;;4903158;29;20052;-75
2021/03/11 08:24:39;;;;;;;3.35;1.42;;;12.00;1.00;;;;;;4909061;29;20056;-75
2021/03/11 08:27:38;;;;;;;4.85;1.60;;;12.10;1.00;;;;;;4899506;29;20053;-75
2021/03/11 08:30:07;;;;;;;2.90;1.95;;;12.10;1.00;;;;;;4905692;29;20049;-75
2021/03/11 08:32:48;;;;;;;7.28;1.77;;;12.20;1.00;;;;;;4908784;29;20123;-76
2021/03/11 08:35:35;;;;;;;3.90;1.58;;;12.20;1.00;;;;;;4912360;29;20481;-76
2021/03/11 08:38:39;;;;;;;3.65;1.60;;;12.30;1.00;;;;;;4909963;29;20056;-77
2021/03/11 08:41:08;;;;;;;5.40;1.67;;;12.30;1.00;;;;;;4899511;29;20052;-77
2021/03/11 08:43:51;;;;;;;9.10;1.83;;;12.40;1.00;;;;;;4904734;29;20055;-76
2021/03/11 08:46:19;;;;;;;5.03;1.60;;;12.40;1.00;;;;;;4896337;29;20044;-76
2021/03/11 08:48:49;;;;;;;9.25;2.20;;;12.40;1.00;;;;;;4895654;29;20053;-75
2021/03/11 08:51:37;;;;;;;6.53;1.77;;;12.50;1.00;;;;;;4892809;29;20134;-77
2021/03/11 08:54:20;;;;;;;4.30;1.42;;;12.60;1.00;;;;;;4899504;29;20045;-77
2021/03/11 08:56:47;;;;;;;4.25;1.45;;;12.70;1.00;;;;;;4906818;29;20063;-75
2021/03/11 08:59:16;;;;;;;6.50;2.08;;;12.70;1.00;;;;;;4904415;29;20067;-75
2021/03/11 09:01:47;;;;;;;6.82;2.10;;;12.60;1.00;;;;;;4908569;29;20051;-75
2021/03/11 09:04:41;;;;;;;5.10;2.70;;;12.60;1.00;;;;;;4902085;29;20103;-76
2021/03/11 09:07:10;;;;;;;7.22;1.58;;;12.50;1.00;;;;;;4892749;29;20516;-75
2021/03/11 09:09:40;;;;;;;2.65;1.80;;;12.40;1.00;;;;;;4891845;29;20095;-76
2021/03/11 09:12:09;;;;;;;5.78;1.48;;;12.40;1.00;;;;;;4897072;29;20083;-75
2021/03/11 09:14:38;;;;;;;6.63;1.40;;;12.30;1.00;;;;;;4891388;29;20115;-74
2021/03/11 09:17:08;;;;;;;3.40;1.10;;;12.30;1.00;;;;;;4896570;29;20052;-77
2021/03/11 09:19:36;;;;;;;4.22;1.30;;;12.30;1.00;;;;;;4897979;29;20651;-77
2021/03/11 09:22:22;;;;;;;1.88;1.25;;;12.30;1.00;;;;;;4904501;29;20140;-77
2021/03/11 09:25:13;;;;;;;3.97;1.30;;;12.40;1.00;;;;;;4903354;29;20079;-77
2021/03/11 09:27:52;;;;;;;4.95;1.73;;;12.40;1.00;;;;;;4896080;29;20052;-76
2021/03/11 09:30:28;;;;;;;3.15;1.15;;;12.50;1.00;;;;;;4898325;29;20051;-75
2021/03/11 09:32:55;;;;;;;3.00;1.33;;;12.40;1.00;;;;;;4906198;29;20052;-76
2021/03/11 09:35:25;;;;;;;3.08;1.35;;;12.40;1.00;;;;;;4898627;29;20058;-77
2021/03/11 09:37:58;;;;;;;5.35;1.23;;;12.40;1.00;;;;;;4900180;29;20499;-76
2021/03/11 09:40:34;;;;;;;10.35;2.47;;;12.40;1.00;;;;;;4891609;29;20052;-76
2021/03/11 09:43:06;;;;;;;5.32;1.20;;;12.50;1.00;;;;;;4900891;29;20057;-77
2021/03/11 09:45:34;;;;;;;1.83;1.05;;;12.50;1.00;;;;;;4899388;29;20411;-76
2021/03/11 09:48:07;;;;;;;3.15;0.98;;;12.50;1.00;;;;;;4894315;29;20052;-75
2021/03/11 09:50:36;;;;;;;2.78;1.20;;;12.50;1.00;;;;;;4896782;29;20055;-74
2021/03/11 09:53:03;;;;;;;2.83;1.20;;;12.60;1.00;;;;;;4902142;29;20064;-75
2021/03/11 09:55:30;;;;;;;1.58;1.08;;;12.60;1.00;;;;;;4902566;29;20059;-76
2021/03/11 09:57:58;;;;;;;2.33;1.13;;;12.60;1.00;;;;;;4895060;29;20068;-75
2021/03/11 10:00:39;;;;;;;1.88;0.98;;;12.60;1.00;;;;;;4896089;29;20053;-75
2021/03/11 10:03:16;;;;;;;2.15;1.17;;;12.60;1.00;;;;;;4902363;29;20048;-74
2021/03/11 10:05:44;;;;;;;2.78;1.10;;;12.70;1.00;;;;;;4901454;29;20060;-76
2021/03/11 10:08:27;;;;;;;4.32;1.48;;;12.80;1.00;;;;;;4893213;29;21253;-75
2021/03/11 10:11:11;;;;;;;1.08;0.90;;;12.80;1.00;;;;;;4902569;29;20797;-75
2021/03/11 10:13:47;;;;;;;2.28;1.17;;;12.90;1.00;;;;;;4906224;29;20052;-75
2021/03/11 10:16:14;;;;;;;2.97;1.10;;;13.00;1.00;;;;;;4901186;29;20152;-76
2021/03/11 10:19:05;;;;;;;2.67;1.00;;;13.10;1.00;;;;;;4893044;29;20060;-75
2021/03/11 10:21:44;;;;;;;2.75;1.30;;;13.00;1.00;;;;;;4898424;29;20045;-75
2021/03/11 10:24:11;;;;;;;3.10;1.00;;;13.10;1.00;;;;;;4911614;29;20048;-75
2021/03/11 10:26:38;;;;;;;2.35;0.93;;;13.20;1.00;;;;;;4908232;29;20396;-76
2021/03/11 10:29:08;;;;;;;22.17;10.05;;;13.20;1.00;;;;;;4898240;29;20526;-74
2021/03/11 10:31:36;;;;;;;4.30;1.27;;;13.30;1.00;;;;;;4902596;29;20059;-74
2021/03/11 10:34:06;;;;;;;2.05;0.98;;;13.20;1.00;;;;;;4910051;29;20063;-74
2021/03/11 10:36:34;;;;;;;2.60;1.10;;;13.20;1.00;;;;;;4903112;29;20558;-75
2021/03/11 10:39:10;;;;;;;1.52;0.77;;;13.20;1.00;;;;;;4891677;29;20529;-76
2021/03/11 10:41:39;;;;;;;6.38;1.13;;;13.30;1.00;;;;;;4901042;29;20059;-76
2021/03/11 10:44:17;;;;;;;2.28;1.10;;;13.40;1.00;;;;;;4904718;29;20052;-75
2021/03/11 10:46:44;;;;;;;2.65;1.10;;;13.40;1.00;;;;;;4902966;29;20483;-77
2021/03/11 10:49:14;;;;;;;3.03;1.10;;;13.30;1.00;;;;;;4895005;29;20053;-77
2021/03/11 10:51:42;;;;;;;3.60;0.90;;;13.30;1.00;;;;;;4902604;29;20053;-76
2021/03/11 10:54:27;;;;;;;5.43;0.90;;;13.30;1.00;;;;;;4908362;29;20062;-76
2021/03/11 10:57:09;;;;;;;4.95;1.00;;;13.30;1.00;;;;;;4902013;29;20454;-76
2021/03/11 10:59:58;;;;;;;1.15;0.80;;;13.00;1.00;;;;;;4896607;29;20064;-75
2021/03/11 11:02:27;;;;;;;4.30;1.20;;;12.80;1.00;;;;;;4899471;29;20140;-75
2021/03/11 11:04:56;;;;;;;6.63;2.97;;;12.60;1.00;;;;;;4903489;29;20525;-76
2021/03/11 11:07:23;;;;;;;4.30;1.10;;;12.40;1.00;;;;;;4904863;29;20060;-74
2021/03/11 11:09:50;;;;;;;2.95;1.20;;;12.30;2.50;;;;;;4894439;29;20059;-78
2021/03/11 11:12:19;;;;;;;3.33;1.27;;;12.20;4.70;;;;;;4902817;29;20138;-77
2021/03/11 11:14:47;;;;;;;5.65;1.00;;;12.10;4.40;;;;;;4902831;29;20173;-75
2021/03/11 11:17:15;;;;;;;2.95;1.27;;;12.10;5.50;;;;;;4901858;29;20066;-73
2021/03/11 11:19:44;;;;;;;4.50;1.30;;;12.10;5.80;;;;;;4896867;29;20318;-76
2021/03/11 11:22:11;;;;;;;3.22;1.25;;;12.20;6.30;;;;;;4899659;29;20055;-74
2021/03/11 11:24:38;;;;;;;3.40;1.10;;;12.20;6.90;;;;;;4903253;29;20597;-76
2021/03/11 11:27:06;;;;;;;5.75;1.17;;;12.20;6.40;;;;;;4902507;29;20448;-75
2021/03/11 11:29:33;;;;;;;2.67;1.17;;;12.20;6.80;;;;;;4895222;29;20059;-76
2021/03/11 11:32:00;;;;;;;4.97;1.98;;;12.20;7.10;;;;;;4901056;29;20072;-75
2021/03/11 11:34:28;;;;;;;7.50;2.28;;;12.30;6.00;;;;;;4901202;29;20060;-74
2021/03/11 11:36:55;;;;;;;2.72;1.45;;;12.30;7.50;;;;;;4901006;29;20100;-73
2021/03/11 11:39:22;;;;;;;2.60;0.90;;;12.30;6.40;;;;;;4892752;29;20140;-76
2021/03/11 11:41:50;;;;;;;3.55;1.10;;;12.40;6.80;;;;;;4907653;29;20044;-75
2021/03/11 11:44:19;;;;;;;2.97;1.40;;;12.40;7.50;;;;;;4900437;29;20135;-74
2021/03/11 11:46:46;;;;;;;2.50;0.75;;;12.40;8.30;;;;;;4899853;29;20044;-73
2021/03/11 11:49:13;;;;;;;3.63;0.70;;;12.40;6.40;;;;;;4891699;29;20055;-76
2021/03/11 11:51:41;;;;;;;1.55;0.68;;;12.50;6.60;;;;;;4910717;29;20052;-75
2021/03/11 11:54:08;;;;;;;2.05;0.68;;;12.50;6.40;;;;;;4902732;29;20052;-75
2021/03/11 11:56:36;;;;;;;4.03;0.70;;;12.50;7.70;;;;;;4903017;29;20516;-74
2021/03/11 11:59:03;;;;;;;9.30;1.13;;;12.60;7.40;;;;;;4891551;29;20055;-74
2021/03/11 12:01:29;;;;;;;7.35;1.17;;;12.70;8.60;;;;;;4899832;29;20060;-74
2021/03/11 12:03:56;;;;;;;12.70;1.13;;;12.70;9.00;;;;;;4902951;29;20479;-75
2021/03/11 12:06:23;;;;;;;2.28;0.40;;;12.80;8.30;;;;;;4902595;29;20054;-74
2021/03/11 12:08:51;;;;;;;0.70;0.50;;;12.80;8.40;;;;;;4888680;29;20060;-75
2021/03/11 12:11:18;;;;;;;2.38;0.52;;;12.70;8.20;;;;;;4901332;29;20523;-76
2021/03/11 12:13:45;;;;;;;6.32;3.75;;;12.70;8.00;;;;;;4893863;29;20059;-79
2021/03/11 12:16:12;;;;;;;2.35;0.70;;;12.80;8.20;;;;;;4887533;29;20531;-74
2021/03/11 12:18:39;;;;;;;1.00;0.52;;;12.80;8.30;;;;;;4883853;29;20060;-75
2021/03/11 12:21:08;;;;;;;1.05;0.50;;;12.90;8.90;;;;;;4908840;29;20517;-75
2021/03/11 12:23:43;;;;;;;2.10;0.80;;;12.90;9.00;;;;;;4897934;29;20058;-79
2021/03/11 12:26:11;;;;;;;1.52;0.60;;;13.00;8.30;;;;;;4900631;29;20051;-76
2021/03/11 12:28:38;;;;;;;1.92;0.60;;;13.00;7.10;;;;;;4894250;29;20094;-75
2021/03/11 12:31:05;;;;;;;0.57;0.40;;;13.20;7.10;;;;;;4906216;29;20049;-75
2021/03/11 12:33:32;;;;;;;5.00;0.63;;;13.30;5.20;;;;;;4902168;29;20131;-74
2021/03/11 12:35:59;;;;;;;1.55;0.65;;;13.50;4.30;;;;;;4902059;29;20045;-75
2021/03/11 12:38:26;;;;;;;1.42;0.65;;;13.70;4.60;;;;;;4891983;29;20056;-73
2021/03/11 12:40:53;;;;;;;4.28;0.55;;;13.70;4.00;;;;;;4899230;29;20079;-74
2021/03/11 12:43:21;;;;;;;4.88;0.95;;;13.60;3.50;;;;;;4900931;29;20531;-75
2021/03/11 12:45:56;;;;;;;1.08;0.50;;;13.50;2.70;;;;;;4902077;29;20044;-75
2021/03/11 12:48:24;;;;;;;2.08;0.60;;;13.80;3.20;;;;;;4899319;29;20060;-76
2021/03/11 12:50:51;;;;;;;1.38;0.43;;;13.90;1.30;;;;;;4886522;29;20691;-76
2021/03/11 12:53:19;;;;;;;1.13;0.60;;;13.80;1.00;;;;;;4899660;29;20044;-76
2021/03/11 12:55:46;;;;;;;0.90;0.50;;;13.90;1.20;;;;;;4902634;29;20059;-74
2021/03/11 12:58:13;;;;;;;1.05;0.43;;;14.00;1.00;;;;;;4898937;29;20052;-76
2021/03/11 13:00:41;;;;;;;0.95;0.55;;;14.10;1.00;;;;;;4897979;29;20071;-76
2021/03/11 13:03:08;;;;;;;0.73;0.47;;;14.50;1.00;;;;;;4902077;29;20048;-75
2021/03/11 13:05:36;;;;;;;1.10;0.30;;;14.20;1.00;;;;;;4889005;29;20040;-76
2021/03/11 13:08:05;;;;;;;3.10;0.60;;;14.10;1.00;;;;;;4881297;29;20847;-75
2021/03/11 13:10:32;;;;;;;0.95;0.60;;;14.10;1.00;;;;;;4898512;29;20048;-76
2021/03/11 13:13:01;;;;;;;2.70;0.90;;;14.20;1.30;;;;;;4903863;29;20480;-76